Meeks Bay, California
Current Conditions -  °F | °C
As of 7:53 AM on Wednesday 22 Oct 2014 (Local Time) from KTVL Reporting Station
Clear Clear  
Wind Chill: 26°   Ceiling: Unl
Heat Index: 32°   Visibility: 10mi
Dew Point: 24°   Wind: 6mph
Humidity: 73%   Direction: 180°S
Pressure: 30.18"   Gusts: NA
Location:  39.0516°N, 120.165°W
Report Text: KTVL 221453Z AUTO 18005KT 10SM CLR 00/M04 A3018 RMK AO2 SLP208 T00001044 53009 $
Loading
Personal Weather Stations






























Interactive Weather Map
Tropical Storm Tracking
New forecast layout! Learn more

10-Day Weather Forecast

Advertisements
Track Severe Weather on mobile